createdAt,value
2023-05-14T00:00:08.048Z,1005.7
2023-05-14T00:01:24.996Z,1005.7
2023-05-14T00:02:42.052Z,1005.7
2023-05-14T00:03:59.202Z,1005.7
2023-05-14T00:05:15.947Z,1005.6
2023-05-14T00:06:32.986Z,1005.6
2023-05-14T00:07:49.970Z,1005.6
2023-05-14T00:09:06.972Z,1005.6
2023-05-14T00:10:24.174Z,1005.6
2023-05-14T00:11:40.988Z,1005.6
2023-05-14T00:12:57.966Z,1005.6
2023-05-14T00:14:14.985Z,1005.6
2023-05-14T00:15:34.165Z,1005.6
2023-05-14T00:16:49.010Z,1005.5
2023-05-14T00:18:05.989Z,1005.5
2023-05-14T00:19:22.990Z,1005.5
2023-05-14T00:20:39.984Z,1005.5
2023-05-14T00:21:57.037Z,1005.5
2023-05-14T00:23:13.989Z,1005.5
2023-05-14T00:24:30.976Z,1005.5
2023-05-14T00:25:47.995Z,1005.5
2023-05-14T00:27:05.082Z,1005.5
2023-05-14T00:28:22.057Z,1005.5
2023-05-14T00:29:38.985Z,1005.5
2023-05-14T00:30:56.042Z,1005.5
2023-05-14T00:32:13.059Z,1005.5
2023-05-14T00:33:30.003Z,1005.5
2023-05-14T00:34:47.126Z,1005.5
2023-05-14T00:36:04.073Z,1005.5
2023-05-14T00:37:21.057Z,1005.5
2023-05-14T00:38:38.028Z,1005.5
2023-05-14T00:39:55.005Z,1005.4
2023-05-14T00:41:12.012Z,1005.5
2023-05-14T00:42:29.029Z,1005.5
2023-05-14T00:43:46.004Z,1005.5
2023-05-14T00:45:03.052Z,1005.5
2023-05-14T00:46:20.063Z,1005.5
2023-05-14T00:47:37.086Z,1005.5
2023-05-14T00:48:54.014Z,1005.5
2023-05-14T00:50:11.035Z,1005.5
2023-05-14T00:51:28.221Z,1005.5
2023-05-14T00:52:46.084Z,1005.5
2023-05-14T00:54:03.035Z,1005.5
2023-05-14T00:55:20.022Z,1005.6
2023-05-14T00:56:37.018Z,1005.5
2023-05-14T00:57:54.094Z,1005.5
2023-05-14T00:59:11.040Z,1005.5
2023-05-14T01:00:28.042Z,1005.5
2023-05-14T01:01:45.047Z,1005.5
2023-05-14T01:03:03.489Z,1005.5
2023-05-14T01:04:24.049Z,1005.5
2023-05-14T01:05:41.070Z,1005.5
2023-05-14T01:06:58.110Z,1005.5
2023-05-14T01:08:15.060Z,1005.4
2023-05-14T01:09:32.046Z,1005.5
2023-05-14T01:10:49.051Z,1005.4
2023-05-14T01:12:06.109Z,1005.4
2023-05-14T01:13:23.053Z,1005.4
2023-05-14T01:14:40.048Z,1005.4
2023-05-14T01:15:57.053Z,1005.4
2023-05-14T01:17:14.116Z,1005.4
2023-05-14T01:18:31.070Z,1005.4
2023-05-14T01:19:48.061Z,1005.4
2023-05-14T01:21:05.100Z,1005.4
2023-05-14T01:22:22.095Z,1005.4
2023-05-14T01:23:39.860Z,1005.4
2023-05-14T01:24:59.024Z,1005.3
2023-05-14T01:26:18.227Z,1005.3
2023-05-14T01:27:36.148Z,1005.3
2023-05-14T01:28:54.075Z,1005.3
2023-05-14T01:30:11.106Z,1005.3
2023-05-14T01:31:28.291Z,1005.3
2023-05-14T01:32:45.095Z,1005.3
2023-05-14T01:34:02.096Z,1005.3
2023-05-14T01:35:19.146Z,1005.3
2023-05-14T01:36:36.131Z,1005.3
2023-05-14T01:37:53.086Z,1005.3
2023-05-14T01:39:10.082Z,1005.3
2023-05-14T01:40:27.163Z,1005.3
2023-05-14T01:41:44.765Z,1005.4
2023-05-14T01:43:02.147Z,1005.4
2023-05-14T01:44:19.088Z,1005.3
2023-05-14T01:45:36.124Z,1005.4
2023-05-14T01:46:53.093Z,1005.4
2023-05-14T01:48:10.117Z,1005.3
2023-05-14T01:49:27.112Z,1005.3
2023-05-14T01:50:44.139Z,1005.3
2023-05-14T01:52:01.155Z,1005.3
2023-05-14T01:53:18.131Z,1005.3
2023-05-14T01:56:32.207Z,1005.2
2023-05-14T01:57:49.136Z,1005.3
2023-05-14T01:59:06.116Z,1005.2
2023-05-14T02:00:23.421Z,1005.2
2023-05-14T02:01:40.235Z,1005.2
2023-05-14T02:02:57.208Z,1005.2
2023-05-14T02:04:14.218Z,1005.2
2023-05-14T02:05:31.130Z,1005.2
2023-05-14T02:06:48.158Z,1005.2
2023-05-14T02:08:05.229Z,1005.2
2023-05-14T02:09:22.152Z,1005.2
2023-05-14T02:10:39.125Z,1005.2
2023-05-14T02:11:56.131Z,1005.2
2023-05-14T02:13:17.519Z,1005.2
2023-05-14T02:14:35.465Z,1005.1
2023-05-14T02:15:52.178Z,1005.2
2023-05-14T02:17:09.144Z,1005.2
2023-05-14T02:18:26.224Z,1005.2
2023-05-14T02:19:43.204Z,1005.2
2023-05-14T02:21:00.162Z,1005.2
2023-05-14T02:22:17.158Z,1005.2
2023-05-14T02:23:40.829Z,1005.2
2023-05-14T02:24:51.261Z,1005.2
2023-05-14T02:26:08.198Z,1005.2
2023-05-14T02:27:25.172Z,1005.2
2023-05-14T02:28:42.171Z,1005.2
2023-05-14T02:29:59.211Z,1005.2
2023-05-14T02:31:16.244Z,1005.1
2023-05-14T02:32:33.220Z,1005.1
2023-05-14T02:33:50.229Z,1005.1
2023-05-14T02:35:07.180Z,1005.1
2023-05-14T02:36:24.313Z,1005.1
2023-05-14T02:37:41.362Z,1005.1
2023-05-14T02:38:58.259Z,1005.1
2023-05-14T02:40:15.190Z,1005.1
2023-05-14T02:41:32.248Z,1005.1
2023-05-14T02:42:49.193Z,1005.1
2023-05-14T02:44:06.193Z,1005.1
2023-05-14T02:45:23.188Z,1005.1
2023-05-14T02:46:40.354Z,1005.1
2023-05-14T02:47:57.245Z,1005.1
2023-05-14T02:49:14.226Z,1005.1
2023-05-14T02:50:31.201Z,1005.1
2023-05-14T02:51:48.255Z,1005
2023-05-14T02:53:05.208Z,1005
2023-05-14T02:54:22.256Z,1005
2023-05-14T02:55:39.306Z,1005
2023-05-14T02:56:56.244Z,1005
2023-05-14T02:58:13.238Z,1005
2023-05-14T02:59:30.203Z,1005
2023-05-14T03:00:47.247Z,1005
2023-05-14T03:02:04.288Z,1005
2023-05-14T03:03:21.326Z,1005
2023-05-14T03:04:38.251Z,1005
2023-05-14T03:05:55.224Z,1005
2023-05-14T03:07:12.244Z,1005
2023-05-14T03:08:29.251Z,1005
2023-05-14T03:09:46.310Z,1004.9
2023-05-14T03:11:03.229Z,1004.9
2023-05-14T03:12:20.242Z,1004.9
2023-05-14T03:13:37.239Z,1004.9
2023-05-14T03:14:54.299Z,1004.9
2023-05-14T03:16:11.437Z,1004.9
2023-05-14T03:17:28.262Z,1004.9
2023-05-14T03:18:45.310Z,1004.9
2023-05-14T03:20:02.339Z,1004.9
2023-05-14T03:21:19.262Z,1004.9
2023-05-14T03:22:36.259Z,1004.9
2023-05-14T03:23:53.268Z,1004.9
2023-05-14T03:25:10.381Z,1004.9
2023-05-14T03:26:27.251Z,1004.9
2023-05-14T03:27:44.246Z,1004.9
2023-05-14T03:29:01.270Z,1004.9
2023-05-14T03:30:18.298Z,1004.9
2023-05-14T03:31:35.259Z,1004.9
2023-05-14T03:32:52.274Z,1004.9
2023-05-14T03:34:09.293Z,1005
2023-05-14T03:35:26.257Z,1005
2023-05-14T03:36:43.263Z,1005
2023-05-14T03:38:00.280Z,1005
2023-05-14T03:39:17.330Z,1005
2023-05-14T03:40:34.416Z,1005
2023-05-14T03:41:51.303Z,1005
2023-05-14T03:43:08.272Z,1005
2023-05-14T03:44:25.352Z,1005
2023-05-14T03:45:42.292Z,1005
2023-05-14T03:46:59.270Z,1005
2023-05-14T03:48:16.389Z,1005
2023-05-14T03:49:33.339Z,1005
2023-05-14T03:50:50.336Z,1005
2023-05-14T03:52:07.288Z,1005
2023-05-14T03:53:24.324Z,1005
2023-05-14T03:54:41.366Z,1005
2023-05-14T03:55:58.351Z,1005
2023-05-14T03:57:15.291Z,1005
2023-05-14T03:58:32.328Z,1005
2023-05-14T03:59:50.598Z,1005
2023-05-14T04:01:07.312Z,1005
2023-05-14T04:02:24.362Z,1004.9
2023-05-14T04:03:41.463Z,1004.9
2023-05-14T04:04:58.337Z,1004.9
2023-05-14T04:06:15.311Z,1004.9
2023-05-14T04:07:32.345Z,1004.9
2023-05-14T04:08:49.318Z,1004.9
2023-05-14T04:10:06.413Z,1004.9
2023-05-14T04:11:23.366Z,1004.9
2023-05-14T04:12:40.371Z,1004.9
2023-05-14T04:13:57.334Z,1004.9
2023-05-14T04:15:15.098Z,1004.9
2023-05-14T04:16:31.355Z,1004.9
2023-05-14T04:17:48.373Z,1004.9
2023-05-14T04:19:05.386Z,1004.9
2023-05-14T04:20:22.481Z,1004.9
2023-05-14T04:21:39.358Z,1004.9
2023-05-14T04:22:56.404Z,1004.9
2023-05-14T04:24:13.362Z,1004.9
2023-05-14T04:25:30.360Z,1004.9
2023-05-14T04:26:47.357Z,1004.8
2023-05-14T04:28:04.451Z,1004.9
2023-05-14T04:29:21.389Z,1004.8
2023-05-14T04:30:38.380Z,1004.8
2023-05-14T04:31:55.405Z,1004.8
2023-05-14T04:33:12.369Z,1004.8
2023-05-14T04:34:29.376Z,1004.8
2023-05-14T04:35:46.354Z,1004.8
2023-05-14T04:37:03.353Z,1004.8
2023-05-14T04:38:20.419Z,1004.8
2023-05-14T04:39:37.359Z,1004.8
2023-05-14T04:40:54.359Z,1004.8
2023-05-14T04:42:11.399Z,1004.8
2023-05-14T04:43:28.406Z,1004.8
2023-05-14T04:44:45.401Z,1004.7
2023-05-14T04:46:02.447Z,1004.8
2023-05-14T04:47:19.418Z,1004.8
2023-05-14T04:48:36.427Z,1004.8
2023-05-14T04:49:53.368Z,1004.8
2023-05-14T04:51:10.380Z,1004.8
2023-05-14T04:52:27.379Z,1004.8
2023-05-14T04:53:44.425Z,1004.8
2023-05-14T04:55:01.405Z,1004.8
2023-05-14T04:56:18.418Z,1004.8
2023-05-14T04:57:35.422Z,1004.8
2023-05-14T04:58:52.408Z,1004.8
2023-05-14T05:00:09.421Z,1004.7
2023-05-14T05:01:28.205Z,1004.7
2023-05-14T05:02:45.435Z,1004.7
2023-05-14T05:04:02.487Z,1004.7
2023-05-14T05:05:19.422Z,1004.7
2023-05-14T05:06:40.611Z,1004.7
2023-05-14T05:07:59.396Z,1004.7
2023-05-14T05:09:16.431Z,1004.7
2023-05-14T05:10:33.406Z,1004.7
2023-05-14T05:11:50.513Z,1004.7
2023-05-14T05:13:07.459Z,1004.7
2023-05-14T05:14:24.423Z,1004.7
2023-05-14T05:15:41.428Z,1004.7
2023-05-14T05:16:58.458Z,1004.7
2023-05-14T05:18:15.465Z,1004.7
2023-05-14T05:19:42.822Z,1004.7
2023-05-14T05:20:49.426Z,1004.7
2023-05-14T05:22:06.428Z,1004.6
2023-05-14T05:23:23.468Z,1004.6
2023-05-14T05:24:40.438Z,1004.6
2023-05-14T05:25:57.459Z,1004.6
2023-05-14T05:27:14.465Z,1004.6
2023-05-14T05:28:31.486Z,1004.6
2023-05-14T05:29:48.441Z,1004.6
2023-05-14T05:31:06.497Z,1004.6
2023-05-14T05:32:24.453Z,1004.5
2023-05-14T05:33:41.478Z,1004.5
2023-05-14T05:34:58.446Z,1004.4
2023-05-14T05:36:15.458Z,1004.5
2023-05-14T05:37:32.462Z,1004.5
2023-05-14T05:38:49.472Z,1004.5
2023-05-14T05:40:06.461Z,1004.5
2023-05-14T05:41:23.462Z,1004.5
2023-05-14T05:42:40.470Z,1004.5
2023-05-14T05:43:57.562Z,1004.5
2023-05-14T05:45:14.762Z,1004.4
2023-05-14T05:46:31.520Z,1004.5
2023-05-14T05:47:48.490Z,1004.5
2023-05-14T05:49:05.800Z,1004.6
2023-05-14T05:50:23.018Z,1004.5
2023-05-14T05:51:40.742Z,1004.5
2023-05-14T05:52:57.687Z,1004.5
2023-05-14T05:54:14.816Z,1004.5
2023-05-14T05:55:31.973Z,1004.5
2023-05-14T05:56:49.732Z,1004.5
2023-05-14T05:58:06.540Z,1004.5
2023-05-14T05:59:23.561Z,1004.5
2023-05-14T06:00:40.493Z,1004.5
2023-05-14T06:01:57.532Z,1004.5
2023-05-14T06:03:14.542Z,1004.5
2023-05-14T06:04:31.492Z,1004.5
2023-05-14T06:05:48.615Z,1004.5
2023-05-14T06:07:05.539Z,1004.5
2023-05-14T06:08:22.486Z,1004.5
2023-05-14T06:09:39.568Z,1004.4
2023-05-14T06:10:56.499Z,1004.4
2023-05-14T06:12:13.565Z,1004.4
2023-05-14T06:13:30.599Z,1004.5
2023-05-14T06:14:47.532Z,1004.4
2023-05-14T06:16:04.505Z,1004.4
2023-05-14T06:17:21.549Z,1004.4
2023-05-14T06:18:38.583Z,1004.4
2023-05-14T06:19:55.535Z,1004.4
2023-05-14T06:21:12.550Z,1004.3
2023-05-14T06:22:29.571Z,1004.4
2023-05-14T06:23:46.536Z,1004.3
2023-05-14T06:25:03.575Z,1004.4
2023-05-14T06:26:20.552Z,1004.3
2023-05-14T06:27:37.533Z,1004.3
2023-05-14T06:28:54.532Z,1004.3
2023-05-14T06:30:11.609Z,1004.3
2023-05-14T06:31:28.592Z,1004.3
2023-05-14T06:32:45.587Z,1004.3
2023-05-14T06:34:02.681Z,1004.3
2023-05-14T06:35:19.538Z,1004.2
2023-05-14T06:36:36.554Z,1004.2
2023-05-14T06:37:53.547Z,1004.2
2023-05-14T06:39:10.569Z,1004.2
2023-05-14T06:40:27.554Z,1004.2
2023-05-14T06:41:44.560Z,1004.1
2023-05-14T06:43:01.605Z,1003.9
2023-05-14T06:44:18.576Z,1003.8
2023-05-14T06:45:35.652Z,1003.7
2023-05-14T06:46:52.577Z,1003.8
2023-05-14T06:48:09.651Z,1003.8
2023-05-14T06:49:26.621Z,1003.9
2023-05-14T06:50:43.645Z,1003.9
2023-05-14T06:52:00.602Z,1004.1
2023-05-14T06:53:17.561Z,1004
2023-05-14T06:54:34.595Z,1004
2023-05-14T06:55:51.726Z,1004
2023-05-14T06:57:08.633Z,1003.9
2023-05-14T06:58:25.573Z,1003.7
2023-05-14T06:59:42.616Z,1003.6
2023-05-14T07:00:59.792Z,1003.6
2023-05-14T07:02:16.635Z,1003.6
2023-05-14T07:03:34.071Z,1003.5
2023-05-14T07:04:50.595Z,1003.5
2023-05-14T07:06:07.587Z,1003.5
2023-05-14T07:07:24.623Z,1003.5
2023-05-14T07:08:41.597Z,1003.5
2023-05-14T07:09:58.604Z,1003.5
2023-05-14T07:11:15.648Z,1003.5
2023-05-14T07:12:32.600Z,1003.4
2023-05-14T07:13:49.635Z,1003.4
2023-05-14T07:15:06.668Z,1003.4
2023-05-14T07:16:23.670Z,1003.4
2023-05-14T07:17:40.703Z,1003.4
2023-05-14T07:18:57.670Z,1003.4
2023-05-14T07:20:14.617Z,1003.4
2023-05-14T07:21:31.833Z,1003.4
2023-05-14T07:22:48.612Z,1003.4
2023-05-14T07:24:05.684Z,1003.4
2023-05-14T07:25:22.613Z,1003.4
2023-05-14T07:26:39.642Z,1003.4
2023-05-14T07:27:56.658Z,1003.4
2023-05-14T07:29:13.655Z,1003.4
2023-05-14T07:30:30.642Z,1003.4
2023-05-14T07:31:47.774Z,1003.4
2023-05-14T07:33:04.730Z,1003.4
2023-05-14T07:34:21.648Z,1003.4
2023-05-14T07:35:38.775Z,1003.4
2023-05-14T07:36:55.633Z,1003.4
2023-05-14T07:38:12.667Z,1003.4
2023-05-14T07:39:29.733Z,1003.4
2023-05-14T07:40:46.651Z,1003.4
2023-05-14T07:42:03.677Z,1003.4
2023-05-14T07:43:20.673Z,1003.4
2023-05-14T07:44:37.681Z,1003.4
2023-05-14T07:45:54.660Z,1003.4
2023-05-14T07:47:11.764Z,1003.4
2023-05-14T07:48:28.685Z,1003.4
2023-05-14T07:49:45.727Z,1003.4
2023-05-14T07:51:02.714Z,1003.5
2023-05-14T07:52:19.670Z,1003.4
2023-05-14T07:53:36.667Z,1003.4
2023-05-14T07:54:53.727Z,1003.4
2023-05-14T07:56:10.687Z,1003.3
2023-05-14T07:57:27.688Z,1003.3
2023-05-14T07:58:44.756Z,1003.3
2023-05-14T08:00:01.768Z,1003.3
2023-05-14T08:01:18.668Z,1003.3
2023-05-14T08:02:35.929Z,1003.3
2023-05-14T08:03:52.805Z,1003.3
2023-05-14T08:05:09.679Z,1003.3
2023-05-14T08:06:26.713Z,1003.3
2023-05-14T08:07:43.705Z,1003.3
2023-05-14T08:09:01.325Z,1003.3
2023-05-14T08:10:17.706Z,1003.3
2023-05-14T08:11:34.696Z,1003.3
2023-05-14T08:12:51.691Z,1003.3
2023-05-14T08:14:08.739Z,1003.3
2023-05-14T08:15:27.678Z,1003.3
2023-05-14T08:16:42.749Z,1003.3
2023-05-14T08:17:59.776Z,1003.3
2023-05-14T08:19:16.923Z,1003.3
2023-05-14T08:20:34.098Z,1003.2
2023-05-14T08:21:50.717Z,1003.2
2023-05-14T08:23:07.731Z,1003.2
2023-05-14T08:24:24.844Z,1003.2
2023-05-14T08:25:41.778Z,1003.2
2023-05-14T08:26:58.761Z,1003.2
2023-05-14T08:28:15.733Z,1003.2
2023-05-14T08:29:32.755Z,1003.2
2023-05-14T08:30:49.775Z,1003.2
2023-05-14T08:32:15.859Z,1003.2
2023-05-14T08:33:23.772Z,1003.2
2023-05-14T08:34:41.435Z,1003.2
2023-05-14T08:35:57.790Z,1003.2
2023-05-14T08:37:14.750Z,1003.2
2023-05-14T08:38:31.764Z,1003.1
2023-05-14T08:39:48.775Z,1003.1
2023-05-14T08:41:05.758Z,1003.2
2023-05-14T08:42:22.784Z,1003.1
2023-05-14T08:43:39.791Z,1003.1
2023-05-14T08:44:56.785Z,1003.1
2023-05-14T08:46:13.786Z,1003.1
2023-05-14T08:47:30.860Z,1003.1
2023-05-14T08:48:47.872Z,1003.1
2023-05-14T08:50:04.831Z,1003.2
2023-05-14T08:51:21.786Z,1003.2
2023-05-14T08:52:38.806Z,1003.1
2023-05-14T08:53:55.823Z,1003.1
2023-05-14T08:55:12.796Z,1003.1
2023-05-14T08:56:29.820Z,1003
2023-05-14T08:57:46.781Z,1003
2023-05-14T08:59:03.781Z,1003.1
2023-05-14T09:00:20.818Z,1003.1
2023-05-14T09:01:37.851Z,1003.1
2023-05-14T09:02:54.818Z,1003.1
2023-05-14T09:04:12.455Z,1003.1
2023-05-14T09:05:28.809Z,1003.1
2023-05-14T09:06:45.791Z,1003.3
2023-05-14T09:08:03.024Z,1003.1
2023-05-14T09:09:19.848Z,1003.1
2023-05-14T09:10:36.814Z,1003
2023-05-14T09:11:53.838Z,1003
2023-05-14T09:13:10.801Z,1003
2023-05-14T09:14:27.796Z,1003
2023-05-14T09:15:44.814Z,1003.1
2023-05-14T09:17:01.854Z,1003.2
2023-05-14T09:18:18.818Z,1003.3
2023-05-14T09:19:35.839Z,1003.3
2023-05-14T09:20:52.964Z,1003.3
2023-05-14T09:22:09.849Z,1003.2
2023-05-14T09:23:26.825Z,1003.2
2023-05-14T09:24:43.875Z,1003.2
2023-05-14T09:26:00.860Z,1003.2
2023-05-14T09:27:17.853Z,1003.1
2023-05-14T09:28:34.832Z,1003.1
2023-05-14T09:29:51.834Z,1003.2
2023-05-14T09:31:08.846Z,1003.2
2023-05-14T09:32:25.910Z,1003.2
2023-05-14T09:33:42.847Z,1003.1
2023-05-14T09:34:59.887Z,1003.1
2023-05-14T09:36:16.850Z,1003.1
2023-05-14T09:37:33.884Z,1003.1
2023-05-14T09:38:50.845Z,1002.9
2023-05-14T09:40:07.936Z,1003
2023-05-14T09:41:24.902Z,1003.1
2023-05-14T09:42:41.861Z,1003.1
2023-05-14T09:43:58.854Z,1003.1
2023-05-14T09:45:15.901Z,1003
2023-05-14T09:46:32.878Z,1003
2023-05-14T09:47:49.986Z,1002.9
2023-05-14T09:49:07.121Z,1002.9
2023-05-14T09:50:24.031Z,1002.7
2023-05-14T09:51:40.896Z,1002.6
2023-05-14T09:52:57.870Z,1002.6
2023-05-14T09:54:14.859Z,1002.6
2023-05-14T09:55:31.882Z,1002.5
2023-05-14T09:56:48.934Z,1002.5
2023-05-14T09:58:05.878Z,1002.5
2023-05-14T09:59:22.883Z,1002.6
2023-05-14T10:00:39.918Z,1002.6
2023-05-14T10:01:56.923Z,1002.7
2023-05-14T10:03:13.935Z,1002.8
2023-05-14T10:04:30.922Z,1002.7
2023-05-14T10:05:47.947Z,1002.6
2023-05-14T10:07:04.931Z,1002.6
2023-05-14T10:08:21.928Z,1002.6
2023-05-14T10:09:38.907Z,1002.6
2023-05-14T10:10:55.891Z,1002.5
2023-05-14T10:12:12.985Z,1002.5
2023-05-14T10:13:29.902Z,1002.5
2023-05-14T10:14:46.928Z,1002.5
2023-05-14T10:16:03.932Z,1002.5
2023-05-14T10:17:20.942Z,1002.4
2023-05-14T10:18:38.011Z,1002.4
2023-05-14T10:19:54.925Z,1002.5
2023-05-14T10:21:11.963Z,1002.6
2023-05-14T10:22:28.919Z,1002.6
2023-05-14T10:23:45.949Z,1002.5
2023-05-14T10:25:03.012Z,1002.5
2023-05-14T10:26:21.225Z,1002.5
2023-05-14T10:27:36.933Z,1002.5
2023-05-14T10:28:53.932Z,1002.6
2023-05-14T10:30:10.955Z,1002.6
2023-05-14T10:31:28.019Z,1002.6
2023-05-14T10:32:45.350Z,1002.6
2023-05-14T10:34:01.982Z,1002.6
2023-05-14T10:35:18.942Z,1002.5
2023-05-14T10:36:35.958Z,1002.5
2023-05-14T10:37:53.026Z,1002.5
2023-05-14T10:39:09.953Z,1002.5
2023-05-14T10:40:27.104Z,1002.4
2023-05-14T10:41:43.992Z,1002.4
2023-05-14T10:43:01.009Z,1002.3
2023-05-14T10:44:17.975Z,1002.4
2023-05-14T10:45:34.961Z,1002.3
2023-05-14T10:46:52.083Z,1002.3
2023-05-14T10:48:09.052Z,1002.4
2023-05-14T10:49:36.314Z,1002.4
2023-05-14T10:50:43.020Z,1002.4
2023-05-14T10:52:00.034Z,1002.4
2023-05-14T10:53:17.008Z,1002.3
2023-05-14T10:54:33.972Z,1002.3
2023-05-14T10:55:51.020Z,1002.3
2023-05-14T10:57:08.047Z,1002.3
2023-05-14T10:58:24.992Z,1002.1
2023-05-14T10:59:41.370Z,1002.2
2023-05-14T11:00:57.994Z,1002.2
2023-05-14T11:02:15.059Z,1002.1
2023-05-14T11:03:32.074Z,1002.1
2023-05-14T11:04:48.997Z,1002.1
2023-05-14T11:06:06.633Z,1002.2
2023-05-14T11:07:23.041Z,1002.2
2023-05-14T11:08:40.010Z,1002.1
2023-05-14T11:09:57.009Z,1002.1
2023-05-14T11:11:14.042Z,1002.1
2023-05-14T11:12:31.039Z,1002
2023-05-14T11:13:48.071Z,1002
2023-05-14T11:15:05.052Z,1002
2023-05-14T11:16:23.918Z,1002
2023-05-14T11:17:39.098Z,1002
2023-05-14T11:18:56.035Z,1002
2023-05-14T11:20:13.053Z,1002.1
2023-05-14T11:21:30.066Z,1002.1
2023-05-14T11:22:47.064Z,1002.1
2023-05-14T11:24:04.064Z,1002.1
2023-05-14T11:25:21.065Z,1002.1
2023-05-14T11:26:38.119Z,1002.1
2023-05-14T11:27:55.068Z,1002.1
2023-05-14T11:29:12.046Z,1002.1
2023-05-14T11:30:29.136Z,1002
2023-05-14T11:31:46.089Z,1001.9
2023-05-14T11:33:03.137Z,1001.9
2023-05-14T11:34:20.044Z,1001.9
2023-05-14T11:35:37.093Z,1001.9
2023-05-14T11:36:54.056Z,1001.8
2023-05-14T11:38:11.105Z,1001.8
2023-05-14T11:39:28.059Z,1001.9
2023-05-14T11:40:45.055Z,1001.8
2023-05-14T11:42:02.117Z,1001.8
2023-05-14T11:43:19.096Z,1001.9
2023-05-14T11:44:36.071Z,1001.8
2023-05-14T11:45:53.131Z,1001.8
2023-05-14T11:47:10.097Z,1001.8
2023-05-14T11:48:27.115Z,1001.8
2023-05-14T11:49:44.085Z,1001.8
2023-05-14T11:51:01.151Z,1001.8
2023-05-14T11:52:18.131Z,1001.8
2023-05-14T11:53:35.126Z,1001.8
2023-05-14T11:54:52.084Z,1001.8
2023-05-14T11:56:09.886Z,1001.7
2023-05-14T11:57:26.105Z,1001.7
2023-05-14T11:58:43.089Z,1001.7
2023-05-14T12:00:00.179Z,1001.7
2023-05-14T12:01:17.159Z,1001.7
2023-05-14T12:02:34.142Z,1001.7
2023-05-14T12:03:51.218Z,1001.8
2023-05-14T12:05:08.110Z,1001.8
2023-05-14T12:06:25.131Z,1001.8
2023-05-14T12:07:42.166Z,1001.8
2023-05-14T12:08:59.142Z,1001.8
2023-05-14T12:10:16.180Z,1001.8
2023-05-14T12:11:33.129Z,1001.7
2023-05-14T12:12:50.152Z,1001.7
2023-05-14T12:14:08.248Z,1001.7
2023-05-14T12:15:25.124Z,1001.5
2023-05-14T12:16:42.160Z,1001.6
2023-05-14T12:17:59.209Z,1001.6
2023-05-14T12:19:16.165Z,1001.6
2023-05-14T12:20:33.139Z,1001.6
2023-05-14T12:21:50.130Z,1001.6
2023-05-14T12:23:07.310Z,1001.6
2023-05-14T12:24:24.188Z,1001.6
2023-05-14T12:25:41.130Z,1001.6
2023-05-14T12:26:58.160Z,1001.6
2023-05-14T12:28:15.170Z,1001.7
2023-05-14T12:29:32.154Z,1001.6
2023-05-14T12:30:49.182Z,1001.6
2023-05-14T12:32:06.150Z,1001.6
2023-05-14T12:33:23.177Z,1001.6
2023-05-14T12:34:40.153Z,1001.5
2023-05-14T12:35:57.747Z,1001.5
2023-05-14T12:37:14.169Z,1001.5
2023-05-14T12:38:31.179Z,1001.5
2023-05-14T12:39:48.191Z,1001.5
2023-05-14T12:41:05.168Z,1001.5
2023-05-14T12:42:22.194Z,1001.5
2023-05-14T12:43:39.228Z,1001.5
2023-05-14T12:44:56.214Z,1001.5
2023-05-14T12:46:13.230Z,1001.5
2023-05-14T12:47:30.205Z,1001.5
2023-05-14T12:48:47.229Z,1001.5
2023-05-14T12:50:04.262Z,1001.5
2023-05-14T12:51:21.232Z,1001.5
2023-05-14T12:52:39.863Z,1001.5
2023-05-14T12:53:55.212Z,1001.4
2023-05-14T12:55:12.355Z,1001.4
2023-05-14T12:56:29.204Z,1001.4
2023-05-14T12:57:46.206Z,1001.4
2023-05-14T12:59:03.205Z,1001.4
2023-05-14T13:00:20.254Z,1001.4
2023-05-14T13:01:37.340Z,1001.3
2023-05-14T13:02:54.264Z,1001.3
2023-05-14T13:04:11.239Z,1001.3
2023-05-14T13:05:28.243Z,1001.2
2023-05-14T13:06:45.225Z,1001.2
2023-05-14T13:08:02.261Z,1001.3
2023-05-14T13:09:19.205Z,1001.3
2023-05-14T13:10:36.277Z,1001.3
2023-05-14T13:11:53.281Z,1001.3
2023-05-14T13:13:10.221Z,1001.2
2023-05-14T13:14:27.304Z,1001.2
2023-05-14T13:15:44.242Z,1001.2
2023-05-14T13:17:01.309Z,1001.2
2023-05-14T13:18:18.233Z,1001.2
2023-05-14T13:19:35.264Z,1001.2
2023-05-14T13:20:52.252Z,1001.2
2023-05-14T13:22:09.233Z,1001.2
2023-05-14T13:23:26.276Z,1001.2
2023-05-14T13:24:43.250Z,1001.2
2023-05-14T13:26:00.261Z,1001.1
2023-05-14T13:27:17.291Z,1001.1
2023-05-14T13:28:34.250Z,1001.1
2023-05-14T13:29:51.252Z,1001.1
2023-05-14T13:31:08.295Z,1001.1
2023-05-14T13:32:25.414Z,1001.1
2023-05-14T13:33:42.258Z,1001.1
2023-05-14T13:34:59.295Z,1001.1
2023-05-14T13:36:16.269Z,1001.1
2023-05-14T13:37:33.328Z,1001
2023-05-14T13:38:50.275Z,1001
2023-05-14T13:40:07.303Z,1001
2023-05-14T13:41:24.315Z,1001
2023-05-14T13:42:41.328Z,1001
2023-05-14T13:43:58.306Z,1000.9
2023-05-14T13:45:15.294Z,1000.9
2023-05-14T13:46:32.308Z,1000.9
2023-05-14T13:47:49.612Z,1000.9
2023-05-14T13:49:06.348Z,1000.8
2023-05-14T13:50:23.284Z,1000.9
2023-05-14T13:51:40.290Z,1000.8
2023-05-14T13:52:57.319Z,1000.8
2023-05-14T13:54:14.364Z,1000.8
2023-05-14T13:55:31.309Z,1000.8
2023-05-14T13:56:48.324Z,1000.8
2023-05-14T13:58:05.322Z,1000.8
2023-05-14T13:59:22.694Z,1000.8
2023-05-14T14:00:39.315Z,1000.7
2023-05-14T14:01:56.355Z,1000.7
2023-05-14T14:03:13.311Z,1000.7
2023-05-14T14:04:30.390Z,1000.7
2023-05-14T14:05:47.344Z,1000.7
2023-05-14T14:07:04.329Z,1000.7
2023-05-14T14:08:23.141Z,1000.7
2023-05-14T14:09:38.405Z,1000.7
2023-05-14T14:10:55.555Z,1000.7
2023-05-14T14:12:12.410Z,1000.8
2023-05-14T14:13:29.390Z,1000.8
2023-05-14T14:14:46.355Z,1000.8
2023-05-14T14:16:03.395Z,1000.8
2023-05-14T14:17:20.362Z,1000.8
2023-05-14T14:18:37.402Z,1000.8
2023-05-14T14:19:54.368Z,1000.8
2023-05-14T14:21:11.345Z,1000.8
2023-05-14T14:22:29.092Z,1000.8
2023-05-14T14:23:45.377Z,1000.8
2023-05-14T14:25:02.418Z,1000.8
2023-05-14T14:26:19.353Z,1000.8
2023-05-14T14:27:36.405Z,1000.8
2023-05-14T14:28:53.352Z,1000.8
2023-05-14T14:30:10.745Z,1000.8
2023-05-14T14:31:27.385Z,1000.7
2023-05-14T14:32:44.440Z,1000.7
2023-05-14T14:34:01.370Z,1000.7
2023-05-14T14:35:18.399Z,1000.7
2023-05-14T14:36:35.364Z,1000.7
2023-05-14T14:37:52.390Z,1000.7
2023-05-14T14:39:09.409Z,1000.7
2023-05-14T14:40:26.412Z,1000.7
2023-05-14T14:41:43.390Z,1000.7
2023-05-14T14:43:00.408Z,1000.6
2023-05-14T14:44:17.378Z,1000.6
2023-05-14T14:45:34.484Z,1000.6
2023-05-14T14:46:51.403Z,1000.7
2023-05-14T14:48:08.445Z,1000.6
2023-05-14T14:49:25.410Z,1000.7
2023-05-14T14:50:42.419Z,1000.6
2023-05-14T14:51:59.437Z,1000.6
2023-05-14T14:53:16.402Z,1000.6
2023-05-14T14:54:33.427Z,1000.6
2023-05-14T14:55:50.428Z,1000.6
2023-05-14T14:57:07.427Z,1000.6
2023-05-14T14:58:24.461Z,1000.6
2023-05-14T14:59:41.424Z,1000.5
2023-05-14T15:00:58.543Z,1000.5
2023-05-14T15:02:15.464Z,1000.5
2023-05-14T15:03:32.621Z,1000.6
2023-05-14T15:04:49.414Z,1000.5
2023-05-14T15:06:06.464Z,1000.5
2023-05-14T15:07:23.418Z,1000.5
2023-05-14T15:08:40.486Z,1000.5
2023-05-14T15:09:57.435Z,1000.5
2023-05-14T15:11:14.430Z,1000.4
2023-05-14T15:12:31.432Z,1000.4
2023-05-14T15:13:48.485Z,1000.4
2023-05-14T15:15:05.460Z,1000.4
2023-05-14T15:16:22.446Z,1000.4
2023-05-14T15:17:39.614Z,1000.4
2023-05-14T15:18:56.484Z,1000.4
2023-05-14T15:20:13.509Z,1000.4
2023-05-14T15:21:30.839Z,1000.3
2023-05-14T15:22:47.543Z,1000.3
2023-05-14T15:24:04.494Z,1000.3
2023-05-14T15:25:21.621Z,1000.3
2023-05-14T15:26:38.465Z,1000.3
2023-05-14T15:27:55.473Z,1000.3
2023-05-14T15:29:12.738Z,1000.3
2023-05-14T15:30:29.511Z,1000.2
2023-05-14T15:31:46.573Z,1000.3
2023-05-14T15:33:03.550Z,1000.2
2023-05-14T15:34:20.547Z,1000.2
2023-05-14T15:35:37.520Z,1000.2
2023-05-14T15:36:54.487Z,1000.2
2023-05-14T15:38:11.695Z,1000.3
2023-05-14T15:39:30.091Z,1000.2
2023-05-14T15:40:46.945Z,1000.2
2023-05-14T15:42:03.770Z,1000.2
2023-05-14T15:43:20.807Z,1000.2
2023-05-14T15:44:38.918Z,1000.2
2023-05-14T15:45:54.862Z,1000.2
2023-05-14T15:47:11.807Z,1000.1
2023-05-14T15:48:28.826Z,1000.1
2023-05-14T15:49:45.672Z,1000.1
2023-05-14T15:51:03.511Z,1000
2023-05-14T15:52:20.551Z,1000
2023-05-14T15:53:37.514Z,1000
2023-05-14T15:54:54.531Z,1000
2023-05-14T15:56:11.575Z,1000
2023-05-14T15:57:28.531Z,1000
2023-05-14T15:58:45.802Z,1000
2023-05-14T16:00:02.970Z,1000
2023-05-14T16:01:19.646Z,1000
2023-05-14T16:02:36.583Z,1000.1
2023-05-14T16:03:53.671Z,1000
2023-05-14T16:05:10.538Z,1000
2023-05-14T16:06:27.620Z,1000
2023-05-14T16:07:44.568Z,1000
2023-05-14T16:09:01.540Z,1000